sensor_id;sensor_type;location;lat;lon;timestamp;P1;durP1;ratioP1;P2;durP2;ratioP2
1206;SDS011;593;53.184;8.216;2023-05-07T00:00:16;14.17;;;10.90;;
1206;SDS011;593;53.184;8.216;2023-05-07T00:02:43;14.10;;;12.10;;
1206;SDS011;593;53.184;8.216;2023-05-07T00:05:09;14.57;;;12.30;;
1206;SDS011;593;53.184;8.216;2023-05-07T00:07:35;14.93;;;11.50;;
1206;SDS011;593;53.184;8.216;2023-05-07T00:10:00;17.70;;;11.30;;
1206;SDS011;593;53.184;8.216;2023-05-07T00:12:26;14.80;;;13.20;;
1206;SDS011;593;53.184;8.216;2023-05-07T00:14:51;12.13;;;10.80;;
1206;SDS011;593;53.184;8.216;2023-05-07T00:17:17;13.43;;;11.47;;
1206;SDS011;593;53.184;8.216;2023-05-07T00:19:42;18.93;;;13.20;;
1206;SDS011;593;53.184;8.216;2023-05-07T00:22:07;17.97;;;12.60;;
1206;SDS011;593;53.184;8.216;2023-05-07T00:24:33;13.07;;;11.73;;
1206;SDS011;593;53.184;8.216;2023-05-07T00:26:58;12.67;;;11.13;;
1206;SDS011;593;53.184;8.216;2023-05-07T00:29:23;16.30;;;11.60;;
1206;SDS011;593;53.184;8.216;2023-05-07T00:31:49;16.67;;;14.47;;
1206;SDS011;593;53.184;8.216;2023-05-07T00:34:15;18.80;;;14.00;;
1206;SDS011;593;53.184;8.216;2023-05-07T00:36:40;13.07;;;11.67;;
1206;SDS011;593;53.184;8.216;2023-05-07T00:39:05;13.30;;;12.00;;
1206;SDS011;593;53.184;8.216;2023-05-07T00:41:31;14.37;;;12.13;;
1206;SDS011;593;53.184;8.216;2023-05-07T00:43:57;14.13;;;11.27;;
1206;SDS011;593;53.184;8.216;2023-05-07T00:46:22;13.93;;;12.40;;
1206;SDS011;593;53.184;8.216;2023-05-07T00:48:49;14.63;;;12.30;;
1206;SDS011;593;53.184;8.216;2023-05-07T00:51:15;14.97;;;12.10;;
1206;SDS011;593;53.184;8.216;2023-05-07T00:53:42;14.87;;;12.10;;
1206;SDS011;593;53.184;8.216;2023-05-07T00:56:08;14.03;;;10.90;;
1206;SDS011;593;53.184;8.216;2023-05-07T00:58:33;12.67;;;10.83;;
1206;SDS011;593;53.184;8.216;2023-05-07T01:00:59;13.23;;;10.70;;
1206;SDS011;593;53.184;8.216;2023-05-07T01:03:25;12.50;;;11.20;;
1206;SDS011;593;53.184;8.216;2023-05-07T01:05:50;12.00;;;10.70;;
1206;SDS011;593;53.184;8.216;2023-05-07T01:08:19;12.40;;;11.20;;
1206;SDS011;593;53.184;8.216;2023-05-07T01:10:45;13.90;;;11.73;;
1206;SDS011;593;53.184;8.216;2023-05-07T01:13:11;13.63;;;11.87;;
1206;SDS011;593;53.184;8.216;2023-05-07T01:15:38;13.43;;;11.63;;
1206;SDS011;593;53.184;8.216;2023-05-07T01:18:03;12.83;;;10.17;;
1206;SDS011;593;53.184;8.216;2023-05-07T01:20:29;14.20;;;12.00;;
1206;SDS011;593;53.184;8.216;2023-05-07T01:22:55;14.37;;;12.00;;
1206;SDS011;593;53.184;8.216;2023-05-07T01:25:22;13.40;;;10.50;;
1206;SDS011;593;53.184;8.216;2023-05-07T01:27:48;14.17;;;11.50;;
1206;SDS011;593;53.184;8.216;2023-05-07T01:30:13;13.23;;;11.90;;
1206;SDS011;593;53.184;8.216;2023-05-07T01:32:43;15.33;;;11.63;;
1206;SDS011;593;53.184;8.216;2023-05-07T01:35:13;14.60;;;11.40;;
1206;SDS011;593;53.184;8.216;2023-05-07T01:37:44;13.73;;;10.83;;
1206;SDS011;593;53.184;8.216;2023-05-07T01:40:10;12.87;;;11.57;;
1206;SDS011;593;53.184;8.216;2023-05-07T01:42:36;12.90;;;11.50;;
1206;SDS011;593;53.184;8.216;2023-05-07T01:45:02;11.73;;;10.53;;
1206;SDS011;593;53.184;8.216;2023-05-07T01:47:27;12.63;;;10.30;;
1206;SDS011;593;53.184;8.216;2023-05-07T01:49:54;11.67;;;10.30;;
1206;SDS011;593;53.184;8.216;2023-05-07T01:52:20;12.07;;;10.87;;
1206;SDS011;593;53.184;8.216;2023-05-07T01:54:45;11.47;;;10.00;;
1206;SDS011;593;53.184;8.216;2023-05-07T01:57:11;15.37;;;10.37;;
1206;SDS011;593;53.184;8.216;2023-05-07T01:59:36;13.20;;;11.70;;
1206;SDS011;593;53.184;8.216;2023-05-07T02:02:01;14.30;;;12.10;;
1206;SDS011;593;53.184;8.216;2023-05-07T02:04:27;12.43;;;11.03;;
1206;SDS011;593;53.184;8.216;2023-05-07T02:06:52;12.20;;;11.00;;
1206;SDS011;593;53.184;8.216;2023-05-07T02:09:17;15.23;;;11.13;;
1206;SDS011;593;53.184;8.216;2023-05-07T02:11:43;12.70;;;11.37;;
1206;SDS011;593;53.184;8.216;2023-05-07T02:14:09;11.97;;;10.77;;
1206;SDS011;593;53.184;8.216;2023-05-07T02:16:35;13.17;;;11.60;;
1206;SDS011;593;53.184;8.216;2023-05-07T02:19:00;14.20;;;11.90;;
1206;SDS011;593;53.184;8.216;2023-05-07T02:21:25;13.27;;;12.00;;
1206;SDS011;593;53.184;8.216;2023-05-07T02:23:50;13.70;;;12.20;;
1206;SDS011;593;53.184;8.216;2023-05-07T02:26:16;14.07;;;12.60;;
1206;SDS011;593;53.184;8.216;2023-05-07T02:28:41;13.37;;;11.97;;
1206;SDS011;593;53.184;8.216;2023-05-07T02:31:06;13.37;;;11.43;;
1206;SDS011;593;53.184;8.216;2023-05-07T02:33:32;14.17;;;12.00;;
1206;SDS011;593;53.184;8.216;2023-05-07T02:36:04;12.23;;;10.70;;
1206;SDS011;593;53.184;8.216;2023-05-07T02:38:34;12.80;;;11.10;;
1206;SDS011;593;53.184;8.216;2023-05-07T02:40:59;13.93;;;11.23;;
1206;SDS011;593;53.184;8.216;2023-05-07T02:43:24;15.33;;;11.63;;
1206;SDS011;593;53.184;8.216;2023-05-07T02:45:59;14.70;;;11.60;;
1206;SDS011;593;53.184;8.216;2023-05-07T02:48:28;11.97;;;10.70;;
1206;SDS011;593;53.184;8.216;2023-05-07T02:50:53;13.53;;;12.13;;
1206;SDS011;593;53.184;8.216;2023-05-07T02:53:19;13.60;;;11.13;;
1206;SDS011;593;53.184;8.216;2023-05-07T02:55:44;13.40;;;11.63;;
1206;SDS011;593;53.184;8.216;2023-05-07T02:58:09;13.47;;;11.53;;
1206;SDS011;593;53.184;8.216;2023-05-07T03:00:35;13.57;;;11.37;;
1206;SDS011;593;53.184;8.216;2023-05-07T03:03:00;12.37;;;10.33;;
1206;SDS011;593;53.184;8.216;2023-05-07T03:05:25;14.27;;;12.17;;
1206;SDS011;593;53.184;8.216;2023-05-07T03:07:51;12.00;;;10.00;;
1206;SDS011;593;53.184;8.216;2023-05-07T03:10:16;12.20;;;10.90;;
1206;SDS011;593;53.184;8.216;2023-05-07T03:12:41;15.47;;;12.00;;
1206;SDS011;593;53.184;8.216;2023-05-07T03:15:07;12.27;;;10.70;;
1206;SDS011;593;53.184;8.216;2023-05-07T03:17:33;13.17;;;11.80;;
1206;SDS011;593;53.184;8.216;2023-05-07T03:19:58;11.27;;;10.00;;
1206;SDS011;593;53.184;8.216;2023-05-07T03:22:23;12.33;;;10.53;;
1206;SDS011;593;53.184;8.216;2023-05-07T03:24:49;13.90;;;11.10;;
1206;SDS011;593;53.184;8.216;2023-05-07T03:27:14;12.50;;;11.17;;
1206;SDS011;593;53.184;8.216;2023-05-07T03:29:39;12.83;;;11.40;;
1206;SDS011;593;53.184;8.216;2023-05-07T03:32:04;11.67;;;10.47;;
1206;SDS011;593;53.184;8.216;2023-05-07T03:34:30;14.10;;;10.97;;
1206;SDS011;593;53.184;8.216;2023-05-07T03:36:56;11.97;;;10.23;;
1206;SDS011;593;53.184;8.216;2023-05-07T03:39:21;11.40;;;10.20;;
1206;SDS011;593;53.184;8.216;2023-05-07T03:41:46;11.30;;;10.10;;
1206;SDS011;593;53.184;8.216;2023-05-07T03:44:12;14.73;;;12.07;;
1206;SDS011;593;53.184;8.216;2023-05-07T03:46:37;13.87;;;11.60;;
1206;SDS011;593;53.184;8.216;2023-05-07T03:49:03;12.97;;;11.50;;
1206;SDS011;593;53.184;8.216;2023-05-07T03:51:28;13.93;;;10.77;;
1206;SDS011;593;53.184;8.216;2023-05-07T03:53:53;15.70;;;10.70;;
1206;SDS011;593;53.184;8.216;2023-05-07T03:56:19;11.40;;;10.20;;
1206;SDS011;593;53.184;8.216;2023-05-07T03:58:45;11.37;;;9.50;;
1206;SDS011;593;53.184;8.216;2023-05-07T04:01:12;10.57;;;8.63;;
1206;SDS011;593;53.184;8.216;2023-05-07T04:03:37;13.37;;;9.60;;
1206;SDS011;593;53.184;8.216;2023-05-07T04:06:02;11.83;;;8.87;;
1206;SDS011;593;53.184;8.216;2023-05-07T04:08:28;14.87;;;10.70;;
1206;SDS011;593;53.184;8.216;2023-05-07T04:10:56;12.40;;;9.77;;
1206;SDS011;593;53.184;8.216;2023-05-07T04:13:22;11.70;;;9.00;;
1206;SDS011;593;53.184;8.216;2023-05-07T04:15:47;12.13;;;10.10;;
1206;SDS011;593;53.184;8.216;2023-05-07T04:18:14;11.20;;;9.80;;
1206;SDS011;593;53.184;8.216;2023-05-07T04:20:39;12.53;;;9.00;;
1206;SDS011;593;53.184;8.216;2023-05-07T04:23:04;11.60;;;8.47;;
1206;SDS011;593;53.184;8.216;2023-05-07T04:25:30;12.10;;;10.07;;
1206;SDS011;593;53.184;8.216;2023-05-07T04:27:55;12.27;;;8.83;;
1206;SDS011;593;53.184;8.216;2023-05-07T04:30:20;9.87;;;8.67;;
1206;SDS011;593;53.184;8.216;2023-05-07T04:32:46;12.33;;;8.40;;
1206;SDS011;593;53.184;8.216;2023-05-07T04:35:12;11.03;;;9.50;;
1206;SDS011;593;53.184;8.216;2023-05-07T04:37:38;8.53;;;7.60;;
1206;SDS011;593;53.184;8.216;2023-05-07T04:40:03;11.23;;;8.63;;
1206;SDS011;593;53.184;8.216;2023-05-07T04:42:29;9.73;;;8.53;;
1206;SDS011;593;53.184;8.216;2023-05-07T04:44:54;9.93;;;9.00;;
1206;SDS011;593;53.184;8.216;2023-05-07T04:47:19;8.90;;;8.00;;
1206;SDS011;593;53.184;8.216;2023-05-07T04:49:45;10.33;;;7.80;;
1206;SDS011;593;53.184;8.216;2023-05-07T04:52:10;11.87;;;8.60;;
1206;SDS011;593;53.184;8.216;2023-05-07T04:54:36;11.30;;;8.10;;
1206;SDS011;593;53.184;8.216;2023-05-07T04:57:02;11.20;;;9.00;;
1206;SDS011;593;53.184;8.216;2023-05-07T04:59:28;11.50;;;8.90;;
1206;SDS011;593;53.184;8.216;2023-05-07T05:01:54;10.73;;;8.40;;
1206;SDS011;593;53.184;8.216;2023-05-07T05:04:19;10.53;;;8.83;;
1206;SDS011;593;53.184;8.216;2023-05-07T05:06:44;9.97;;;8.97;;
1206;SDS011;593;53.184;8.216;2023-05-07T05:09:10;8.97;;;8.03;;
1206;SDS011;593;53.184;8.216;2023-05-07T05:11:36;12.50;;;9.80;;
1206;SDS011;593;53.184;8.216;2023-05-07T05:14:01;12.20;;;10.23;;
1206;SDS011;593;53.184;8.216;2023-05-07T05:16:27;9.40;;;8.40;;
1206;SDS011;593;53.184;8.216;2023-05-07T05:18:52;12.90;;;10.50;;
1206;SDS011;593;53.184;8.216;2023-05-07T05:21:19;10.37;;;8.40;;
1206;SDS011;593;53.184;8.216;2023-05-07T05:23:45;12.20;;;9.03;;
1206;SDS011;593;53.184;8.216;2023-05-07T05:26:10;12.27;;;9.73;;
1206;SDS011;593;53.184;8.216;2023-05-07T05:28:36;11.97;;;9.93;;
1206;SDS011;593;53.184;8.216;2023-05-07T05:31:01;11.07;;;9.60;;
1206;SDS011;593;53.184;8.216;2023-05-07T05:33:27;10.90;;;8.70;;
1206;SDS011;593;53.184;8.216;2023-05-07T05:35:53;11.60;;;8.87;;
1206;SDS011;593;53.184;8.216;2023-05-07T05:38:19;13.20;;;9.60;;
1206;SDS011;593;53.184;8.216;2023-05-07T05:40:45;10.30;;;8.47;;
1206;SDS011;593;53.184;8.216;2023-05-07T05:43:11;10.53;;;8.27;;
1206;SDS011;593;53.184;8.216;2023-05-07T05:45:36;10.57;;;9.47;;
1206;SDS011;593;53.184;8.216;2023-05-07T05:48:02;10.20;;;8.77;;
1206;SDS011;593;53.184;8.216;2023-05-07T05:50:27;10.60;;;8.33;;
1206;SDS011;593;53.184;8.216;2023-05-07T05:52:53;11.57;;;9.47;;
1206;SDS011;593;53.184;8.216;2023-05-07T05:55:18;8.23;;;7.43;;
1206;SDS011;593;53.184;8.216;2023-05-07T05:57:43;12.43;;;9.33;;
1206;SDS011;593;53.184;8.216;2023-05-07T06:00:09;12.30;;;9.40;;
1206;SDS011;593;53.184;8.216;2023-05-07T06:02:35;12.70;;;9.60;;
1206;SDS011;593;53.184;8.216;2023-05-07T06:05:00;13.23;;;9.57;;
1206;SDS011;593;53.184;8.216;2023-05-07T06:07:26;9.40;;;8.40;;
1206;SDS011;593;53.184;8.216;2023-05-07T06:09:51;11.47;;;9.07;;
1206;SDS011;593;53.184;8.216;2023-05-07T06:12:16;9.60;;;8.50;;
1206;SDS011;593;53.184;8.216;2023-05-07T06:14:44;8.93;;;8.00;;
1206;SDS011;593;53.184;8.216;2023-05-07T06:17:10;9.10;;;7.57;;
1206;SDS011;593;53.184;8.216;2023-05-07T06:19:35;8.70;;;7.83;;
1206;SDS011;593;53.184;8.216;2023-05-07T06:22:01;8.80;;;7.60;;
1206;SDS011;593;53.184;8.216;2023-05-07T06:24:27;9.23;;;7.73;;
1206;SDS011;593;53.184;8.216;2023-05-07T06:26:52;12.20;;;9.57;;
1206;SDS011;593;53.184;8.216;2023-05-07T06:29:18;8.57;;;7.00;;
1206;SDS011;593;53.184;8.216;2023-05-07T06:31:43;9.97;;;8.90;;
1206;SDS011;593;53.184;8.216;2023-05-07T06:34:08;10.70;;;8.27;;
1206;SDS011;593;53.184;8.216;2023-05-07T06:36:34;9.03;;;8.10;;
1206;SDS011;593;53.184;8.216;2023-05-07T06:38:59;10.87;;;8.60;;
1206;SDS011;593;53.184;8.216;2023-05-07T06:41:25;11.03;;;9.00;;
1206;SDS011;593;53.184;8.216;2023-05-07T06:43:50;8.40;;;7.43;;
1206;SDS011;593;53.184;8.216;2023-05-07T06:46:16;10.63;;;7.40;;
1206;SDS011;593;53.184;8.216;2023-05-07T06:48:41;10.93;;;8.03;;
1206;SDS011;593;53.184;8.216;2023-05-07T06:51:06;10.17;;;7.07;;
1206;SDS011;593;53.184;8.216;2023-05-07T06:53:32;7.97;;;7.03;;
1206;SDS011;593;53.184;8.216;2023-05-07T06:55:57;9.13;;;7.67;;
1206;SDS011;593;53.184;8.216;2023-05-07T06:58:22;9.83;;;6.53;;
1206;SDS011;593;53.184;8.216;2023-05-07T07:00:48;8.80;;;6.93;;
1206;SDS011;593;53.184;8.216;2023-05-07T07:03:13;8.67;;;7.37;;
1206;SDS011;593;53.184;8.216;2023-05-07T07:05:40;9.87;;;7.20;;
1206;SDS011;593;53.184;8.216;2023-05-07T07:08:06;8.03;;;6.57;;
1206;SDS011;593;53.184;8.216;2023-05-07T07:10:31;7.63;;;6.90;;
1206;SDS011;593;53.184;8.216;2023-05-07T07:12:57;9.03;;;7.17;;
1206;SDS011;593;53.184;8.216;2023-05-07T07:15:22;9.10;;;7.47;;
1206;SDS011;593;53.184;8.216;2023-05-07T07:17:49;7.10;;;6.30;;
1206;SDS011;593;53.184;8.216;2023-05-07T07:20:15;7.73;;;6.63;;
1206;SDS011;593;53.184;8.216;2023-05-07T07:22:41;7.17;;;6.43;;
1206;SDS011;593;53.184;8.216;2023-05-07T07:25:06;7.83;;;6.97;;
1206;SDS011;593;53.184;8.216;2023-05-07T07:27:32;6.90;;;6.30;;
1206;SDS011;593;53.184;8.216;2023-05-07T07:29:57;6.87;;;6.20;;
1206;SDS011;593;53.184;8.216;2023-05-07T07:32:22;7.20;;;6.47;;
1206;SDS011;593;53.184;8.216;2023-05-07T07:34:47;7.20;;;6.17;;
1206;SDS011;593;53.184;8.216;2023-05-07T07:37:13;7.67;;;6.87;;
1206;SDS011;593;53.184;8.216;2023-05-07T07:39:38;6.80;;;6.20;;
1206;SDS011;593;53.184;8.216;2023-05-07T07:42:03;7.30;;;6.60;;
1206;SDS011;593;53.184;8.216;2023-05-07T07:44:29;7.40;;;6.70;;
1206;SDS011;593;53.184;8.216;2023-05-07T07:46:54;6.30;;;5.80;;
1206;SDS011;593;53.184;8.216;2023-05-07T07:49:19;6.37;;;5.77;;
1206;SDS011;593;53.184;8.216;2023-05-07T07:51:45;7.57;;;6.80;;
1206;SDS011;593;53.184;8.216;2023-05-07T07:54:10;6.50;;;6.00;;
1206;SDS011;593;53.184;8.216;2023-05-07T07:56:35;6.37;;;5.87;;
1206;SDS011;593;53.184;8.216;2023-05-07T07:59:01;8.17;;;6.00;;
1206;SDS011;593;53.184;8.216;2023-05-07T08:01:26;6.90;;;5.47;;
1206;SDS011;593;53.184;8.216;2023-05-07T08:03:52;7.10;;;6.13;;
1206;SDS011;593;53.184;8.216;2023-05-07T08:06:17;7.37;;;6.67;;
1206;SDS011;593;53.184;8.216;2023-05-07T08:08:43;6.83;;;6.13;;
1206;SDS011;593;53.184;8.216;2023-05-07T08:11:08;7.00;;;6.27;;
1206;SDS011;593;53.184;8.216;2023-05-07T08:13:34;7.80;;;7.00;;
1206;SDS011;593;53.184;8.216;2023-05-07T08:16:00;6.93;;;6.13;;
1206;SDS011;593;53.184;8.216;2023-05-07T08:18:25;7.37;;;6.17;;
1206;SDS011;593;53.184;8.216;2023-05-07T08:20:51;7.30;;;6.63;;
1206;SDS011;593;53.184;8.216;2023-05-07T08:23:16;7.53;;;6.83;;
1206;SDS011;593;53.184;8.216;2023-05-07T08:25:41;6.60;;;6.00;;
1206;SDS011;593;53.184;8.216;2023-05-07T08:28:07;7.53;;;6.40;;
1206;SDS011;593;53.184;8.216;2023-05-07T08:30:33;7.73;;;6.00;;
1206;SDS011;593;53.184;8.216;2023-05-07T08:32:59;6.60;;;6.00;;
1206;SDS011;593;53.184;8.216;2023-05-07T08:35:25;9.23;;;7.40;;
1206;SDS011;593;53.184;8.216;2023-05-07T08:37:52;7.60;;;6.43;;
1206;SDS011;593;53.184;8.216;2023-05-07T08:40:17;6.50;;;5.90;;
1206;SDS011;593;53.184;8.216;2023-05-07T08:42:43;7.20;;;6.60;;
1206;SDS011;593;53.184;8.216;2023-05-07T08:45:09;7.23;;;6.57;;
1206;SDS011;593;53.184;8.216;2023-05-07T08:47:40;8.23;;;6.90;;
1206;SDS011;593;53.184;8.216;2023-05-07T08:50:09;8.27;;;7.53;;
1206;SDS011;593;53.184;8.216;2023-05-07T08:52:35;7.97;;;7.17;;
1206;SDS011;593;53.184;8.216;2023-05-07T08:55:01;7.90;;;7.20;;
1206;SDS011;593;53.184;8.216;2023-05-07T08:57:27;9.07;;;7.33;;
1206;SDS011;593;53.184;8.216;2023-05-07T08:59:53;8.33;;;7.60;;
1206;SDS011;593;53.184;8.216;2023-05-07T09:02:18;7.63;;;6.50;;
1206;SDS011;593;53.184;8.216;2023-05-07T09:04:43;7.03;;;6.40;;
1206;SDS011;593;53.184;8.216;2023-05-07T09:07:09;8.40;;;7.60;;
1206;SDS011;593;53.184;8.216;2023-05-07T09:09:34;8.37;;;7.57;;
1206;SDS011;593;53.184;8.216;2023-05-07T09:12:00;8.60;;;7.80;;
1206;SDS011;593;53.184;8.216;2023-05-07T09:14:26;9.27;;;8.07;;
1206;SDS011;593;53.184;8.216;2023-05-07T09:16:52;7.80;;;7.10;;
1206;SDS011;593;53.184;8.216;2023-05-07T09:19:22;9.17;;;8.33;;
1206;SDS011;593;53.184;8.216;2023-05-07T09:21:48;7.80;;;6.83;;
1206;SDS011;593;53.184;8.216;2023-05-07T09:24:15;9.13;;;8.23;;
1206;SDS011;593;53.184;8.216;2023-05-07T09:26:41;8.30;;;7.57;;
1206;SDS011;593;53.184;8.216;2023-05-07T09:29:07;8.33;;;7.47;;
1206;SDS011;593;53.184;8.216;2023-05-07T09:31:36;9.13;;;7.50;;
1206;SDS011;593;53.184;8.216;2023-05-07T09:34:04;8.10;;;7.30;;
1206;SDS011;593;53.184;8.216;2023-05-07T09:36:31;7.00;;;6.40;;
1206;SDS011;593;53.184;8.216;2023-05-07T09:38:58;8.20;;;6.83;;
1206;SDS011;593;53.184;8.216;2023-05-07T09:41:24;7.43;;;6.83;;
1206;SDS011;593;53.184;8.216;2023-05-07T09:43:54;7.63;;;6.93;;
1206;SDS011;593;53.184;8.216;2023-05-07T09:46:20;7.67;;;6.93;;
1206;SDS011;593;53.184;8.216;2023-05-07T09:48:52;8.47;;;6.93;;
1206;SDS011;593;53.184;8.216;2023-05-07T09:51:43;8.40;;;7.70;;
1206;SDS011;593;53.184;8.216;2023-05-07T09:54:10;8.30;;;7.40;;
1206;SDS011;593;53.184;8.216;2023-05-07T09:56:36;6.17;;;5.77;;
1206;SDS011;593;53.184;8.216;2023-05-07T09:59:06;9.13;;;6.87;;
1206;SDS011;593;53.184;8.216;2023-05-07T10:01:33;7.93;;;7.20;;
1206;SDS011;593;53.184;8.216;2023-05-07T10:04:02;8.20;;;7.43;;
1206;SDS011;593;53.184;8.216;2023-05-07T10:06:29;7.17;;;6.60;;
1206;SDS011;593;53.184;8.216;2023-05-07T10:08:55;6.87;;;6.27;;
1206;SDS011;593;53.184;8.216;2023-05-07T10:11:21;6.83;;;6.23;;
1206;SDS011;593;53.184;8.216;2023-05-07T10:13:47;7.57;;;6.87;;
1206;SDS011;593;53.184;8.216;2023-05-07T10:16:13;6.53;;;6.00;;
1206;SDS011;593;53.184;8.216;2023-05-07T10:18:43;7.40;;;6.80;;
1206;SDS011;593;53.184;8.216;2023-05-07T10:21:11;7.10;;;6.50;;
1206;SDS011;593;53.184;8.216;2023-05-07T10:23:41;7.50;;;6.80;;
1206;SDS011;593;53.184;8.216;2023-05-07T10:26:20;8.80;;;8.00;;
1206;SDS011;593;53.184;8.216;2023-05-07T10:28:49;7.60;;;7.00;;
1206;SDS011;593;53.184;8.216;2023-05-07T10:31:23;6.90;;;6.30;;
1206;SDS011;593;53.184;8.216;2023-05-07T10:33:53;8.03;;;7.33;;
1206;SDS011;593;53.184;8.216;2023-05-07T10:36:20;8.23;;;7.40;;
1206;SDS011;593;53.184;8.216;2023-05-07T10:38:47;8.30;;;7.60;;
1206;SDS011;593;53.184;8.216;2023-05-07T10:41:12;8.33;;;6.90;;
1206;SDS011;593;53.184;8.216;2023-05-07T10:43:38;7.57;;;6.90;;
1206;SDS011;593;53.184;8.216;2023-05-07T10:46:15;7.30;;;6.70;;
1206;SDS011;593;53.184;8.216;2023-05-07T10:51:25;7.70;;;7.00;;
1206;SDS011;593;53.184;8.216;2023-05-07T10:54:18;7.97;;;7.27;;
1206;SDS011;593;53.184;8.216;2023-05-07T10:56:40;8.40;;;7.53;;
1206;SDS011;593;53.184;8.216;2023-05-07T11:01:55;8.50;;;7.77;;
1206;SDS011;593;53.184;8.216;2023-05-07T11:04:27;7.17;;;6.57;;
1206;SDS011;593;53.184;8.216;2023-05-07T11:07:15;8.10;;;7.50;;
1206;SDS011;593;53.184;8.216;2023-05-07T11:12:16;8.83;;;8.03;;
1206;SDS011;593;53.184;8.216;2023-05-07T11:17:10;8.60;;;7.90;;
1206;SDS011;593;53.184;8.216;2023-05-07T11:20:09;9.90;;;8.97;;
1206;SDS011;593;53.184;8.216;2023-05-07T11:25:02;8.83;;;8.03;;
1206;SDS011;593;53.184;8.216;2023-05-07T11:27:28;9.33;;;8.53;;
1206;SDS011;593;53.184;8.216;2023-05-07T11:29:54;8.60;;;7.90;;
1206;SDS011;593;53.184;8.216;2023-05-07T11:32:23;8.57;;;7.77;;
1206;SDS011;593;53.184;8.216;2023-05-07T11:34:56;8.27;;;7.47;;
1206;SDS011;593;53.184;8.216;2023-05-07T11:37:25;9.53;;;8.63;;
1206;SDS011;593;53.184;8.216;2023-05-07T11:40:06;9.23;;;8.33;;
1206;SDS011;593;53.184;8.216;2023-05-07T11:42:33;8.90;;;8.20;;
1206;SDS011;593;53.184;8.216;2023-05-07T11:45:03;10.37;;;8.80;;
1206;SDS011;593;53.184;8.216;2023-05-07T11:47:31;10.07;;;9.17;;
1206;SDS011;593;53.184;8.216;2023-05-07T11:49:56;7.70;;;7.10;;
1206;SDS011;593;53.184;8.216;2023-05-07T11:52:22;9.20;;;8.37;;
1206;SDS011;593;53.184;8.216;2023-05-07T11:54:52;8.87;;;7.97;;
1206;SDS011;593;53.184;8.216;2023-05-07T11:57:22;8.80;;;8.00;;
1206;SDS011;593;53.184;8.216;2023-05-07T11:59:52;8.37;;;7.60;;
1206;SDS011;593;53.184;8.216;2023-05-07T12:02:18;9.47;;;8.63;;
1206;SDS011;593;53.184;8.216;2023-05-07T12:04:44;7.93;;;7.23;;
1206;SDS011;593;53.184;8.216;2023-05-07T12:07:13;7.37;;;6.77;;
1206;SDS011;593;53.184;8.216;2023-05-07T12:09:40;8.30;;;7.50;;
1206;SDS011;593;53.184;8.216;2023-05-07T12:12:06;8.20;;;7.50;;
1206;SDS011;593;53.184;8.216;2023-05-07T12:14:31;8.77;;;7.97;;
1206;SDS011;593;53.184;8.216;2023-05-07T12:16:57;7.90;;;7.20;;
1206;SDS011;593;53.184;8.216;2023-05-07T12:19:27;8.40;;;7.70;;
1206;SDS011;593;53.184;8.216;2023-05-07T12:21:54;8.40;;;7.60;;
1206;SDS011;593;53.184;8.216;2023-05-07T12:24:19;8.10;;;7.33;;
1206;SDS011;593;53.184;8.216;2023-05-07T12:26:46;9.60;;;8.63;;
1206;SDS011;593;53.184;8.216;2023-05-07T12:29:11;9.20;;;8.40;;
1206;SDS011;593;53.184;8.216;2023-05-07T12:31:36;10.13;;;9.23;;
1206;SDS011;593;53.184;8.216;2023-05-07T12:34:05;8.27;;;7.63;;
1206;SDS011;593;53.184;8.216;2023-05-07T12:36:37;7.97;;;7.20;;
1206;SDS011;593;53.184;8.216;2023-05-07T12:39:07;8.23;;;7.57;;
1206;SDS011;593;53.184;8.216;2023-05-07T12:41:52;9.63;;;8.63;;
1206;SDS011;593;53.184;8.216;2023-05-07T12:44:21;8.97;;;8.17;;
1206;SDS011;593;53.184;8.216;2023-05-07T12:46:47;8.67;;;8.00;;
1206;SDS011;593;53.184;8.216;2023-05-07T12:49:12;8.47;;;7.60;;
1206;SDS011;593;53.184;8.216;2023-05-07T12:51:37;9.43;;;8.63;;
1206;SDS011;593;53.184;8.216;2023-05-07T12:54:03;8.67;;;7.90;;
1206;SDS011;593;53.184;8.216;2023-05-07T12:56:30;8.20;;;7.50;;
1206;SDS011;593;53.184;8.216;2023-05-07T12:58:59;8.57;;;7.80;;
1206;SDS011;593;53.184;8.216;2023-05-07T13:01:28;8.63;;;7.90;;
1206;SDS011;593;53.184;8.216;2023-05-07T13:03:55;8.20;;;7.50;;
1206;SDS011;593;53.184;8.216;2023-05-07T13:06:20;9.10;;;8.30;;
1206;SDS011;593;53.184;8.216;2023-05-07T13:08:45;10.37;;;8.63;;
1206;SDS011;593;53.184;8.216;2023-05-07T13:11:11;9.20;;;8.40;;
1206;SDS011;593;53.184;8.216;2023-05-07T13:13:37;9.63;;;8.80;;
1206;SDS011;593;53.184;8.216;2023-05-07T13:16:05;7.57;;;6.87;;
1206;SDS011;593;53.184;8.216;2023-05-07T13:18:31;8.00;;;7.40;;
1206;SDS011;593;53.184;8.216;2023-05-07T13:20:57;8.90;;;8.10;;
1206;SDS011;593;53.184;8.216;2023-05-07T13:23:23;7.63;;;6.93;;
1206;SDS011;593;53.184;8.216;2023-05-07T13:25:48;8.77;;;8.00;;
1206;SDS011;593;53.184;8.216;2023-05-07T13:28:14;8.50;;;7.80;;
1206;SDS011;593;53.184;8.216;2023-05-07T13:30:40;7.30;;;6.70;;
1206;SDS011;593;53.184;8.216;2023-05-07T13:33:08;8.73;;;7.97;;
1206;SDS011;593;53.184;8.216;2023-05-07T13:35:34;7.63;;;6.77;;
1206;SDS011;593;53.184;8.216;2023-05-07T13:38:00;8.47;;;7.63;;
1206;SDS011;593;53.184;8.216;2023-05-07T13:40:25;7.60;;;6.70;;
1206;SDS011;593;53.184;8.216;2023-05-07T13:42:50;7.47;;;6.80;;
1206;SDS011;593;53.184;8.216;2023-05-07T13:45:16;8.30;;;7.60;;
1206;SDS011;593;53.184;8.216;2023-05-07T13:47:42;7.57;;;6.97;;
1206;SDS011;593;53.184;8.216;2023-05-07T13:50:08;7.53;;;6.93;;
1206;SDS011;593;53.184;8.216;2023-05-07T13:52:36;7.63;;;6.93;;
1206;SDS011;593;53.184;8.216;2023-05-07T13:55:02;7.73;;;7.03;;
1206;SDS011;593;53.184;8.216;2023-05-07T13:57:27;8.80;;;7.90;;
1206;SDS011;593;53.184;8.216;2023-05-07T13:59:52;8.03;;;6.67;;
1206;SDS011;593;53.184;8.216;2023-05-07T14:02:18;7.53;;;6.87;;
1206;SDS011;593;53.184;8.216;2023-05-07T14:04:43;8.20;;;7.53;;
1206;SDS011;593;53.184;8.216;2023-05-07T14:07:09;7.90;;;7.30;;
1206;SDS011;593;53.184;8.216;2023-05-07T14:09:35;7.43;;;6.83;;
1206;SDS011;593;53.184;8.216;2023-05-07T14:12:00;7.10;;;6.60;;
1206;SDS011;593;53.184;8.216;2023-05-07T14:14:26;6.90;;;6.30;;
1206;SDS011;593;53.184;8.216;2023-05-07T14:16:51;7.47;;;6.77;;
1206;SDS011;593;53.184;8.216;2023-05-07T14:19:17;6.63;;;6.13;;
1206;SDS011;593;53.184;8.216;2023-05-07T14:21:42;7.40;;;6.70;;
1206;SDS011;593;53.184;8.216;2023-05-07T14:24:07;7.10;;;6.50;;
1206;SDS011;593;53.184;8.216;2023-05-07T14:26:33;7.03;;;6.50;;
1206;SDS011;593;53.184;8.216;2023-05-07T14:28:59;6.70;;;6.20;;
1206;SDS011;593;53.184;8.216;2023-05-07T14:31:24;6.50;;;6.00;;
1206;SDS011;593;53.184;8.216;2023-05-07T14:33:50;6.97;;;6.47;;
1206;SDS011;593;53.184;8.216;2023-05-07T14:36:16;6.63;;;6.10;;
1206;SDS011;593;53.184;8.216;2023-05-07T14:38:42;6.50;;;5.90;;
1206;SDS011;593;53.184;8.216;2023-05-07T14:41:07;6.77;;;5.90;;
1206;SDS011;593;53.184;8.216;2023-05-07T14:43:33;5.13;;;4.73;;
1206;SDS011;593;53.184;8.216;2023-05-07T14:45:58;6.53;;;5.93;;
1206;SDS011;593;53.184;8.216;2023-05-07T14:48:23;5.63;;;5.23;;
1206;SDS011;593;53.184;8.216;2023-05-07T14:50:48;6.40;;;5.80;;
1206;SDS011;593;53.184;8.216;2023-05-07T14:53:14;5.83;;;5.43;;
1206;SDS011;593;53.184;8.216;2023-05-07T14:55:40;6.70;;;6.20;;
1206;SDS011;593;53.184;8.216;2023-05-07T14:58:05;6.13;;;5.73;;
1206;SDS011;593;53.184;8.216;2023-05-07T15:00:31;6.77;;;6.17;;
1206;SDS011;593;53.184;8.216;2023-05-07T15:03:00;5.70;;;5.30;;
1206;SDS011;593;53.184;8.216;2023-05-07T15:05:33;5.83;;;5.33;;
1206;SDS011;593;53.184;8.216;2023-05-07T15:07:59;6.80;;;6.30;;
1206;SDS011;593;53.184;8.216;2023-05-07T15:10:25;5.90;;;5.50;;
1206;SDS011;593;53.184;8.216;2023-05-07T15:12:50;6.00;;;5.60;;
1206;SDS011;593;53.184;8.216;2023-05-07T15:15:15;4.90;;;4.60;;
1206;SDS011;593;53.184;8.216;2023-05-07T15:17:41;6.03;;;5.63;;
1206;SDS011;593;53.184;8.216;2023-05-07T15:20:06;6.00;;;5.60;;
1206;SDS011;593;53.184;8.216;2023-05-07T15:22:32;6.00;;;5.60;;
1206;SDS011;593;53.184;8.216;2023-05-07T15:24:58;5.90;;;5.27;;
1206;SDS011;593;53.184;8.216;2023-05-07T15:27:24;5.90;;;5.50;;